PWSweather.com
Personal Weather Stations
Station Observations
KIDJEROME
Sse Jerome Butte , Jerome, ID 83338

Sse Jerome Butte Jerome, ID 83338

Lat: 42.6981891, Lon: -114.4041362

Elevation: 3960

Station Type: Davis Vantage Pro 2

Latest ConditionsUpdated 9:00:00 AM MDT Wednesday, Oct 17, 2018
Currently Today's Max Today's Min Today's Average
Temperature 34.7°F1.5°C 37.0°F2.8°C 31.4°F-0.3°C 34.0°F1.1°C
Dew Point 30.9°F-0.6°C 31.2°F-0.4°C 27.5°F-2.5°C 29.3°F-1.5°C
Winds 5.0 mph E8.0 kmh E 6.0 mph -9.7 kmh - - 1.8 mph 2.9 kmh
Wind Gusts 9.0 mph14.5 kmh 9.0 mph14.5 kmh - -
Humidity 86% 89% 74% 83%
Pressure 30.32 in1026.8 mb 30.32 in1026.8 mb 30.30 in1026.1 mb -
Hour Temp Dew Point Humidity Winds Wind Gusts Pressure Precip Precip Rate Daily Precip Total
09:00 AM 34.7°F1.5°C 30.9°F-0.6°C 86% 5.0 mph E8.0 kmh E 9.0 mph14.5 kmh 30.32 in1026.8 mb 0.00 in0.0 mm 0.00 in0.0 mm 0.00 in0.0 mm
08:45 AM 34.4°F1.3°C 30.9°F-0.6°C 87% 4.0 mph E6.4 kmh E 7.0 mph11.3 kmh 30.32 in1026.8 mb 0.00 in0.0 mm 0.00 in0.0 mm 0.00 in0.0 mm
08:30 AM 32.8°F0.4°C 29.9°F-1.2°C 89% 4.0 mph NE6.4 kmh NE 7.0 mph11.3 kmh 30.32 in1026.8 mb 0.00 in0.0 mm 0.00 in0.0 mm 0.00 in0.0 mm
08:15 AM 32.4°F0.2°C 29.2°F-1.6°C 88% 6.0 mph ENE9.7 kmh ENE 7.0 mph11.3 kmh 30.32 in1026.8 mb 0.00 in0.0 mm 0.00 in0.0 mm 0.00 in0.0 mm
08:00 AM 31.7°F-0.2°C 28.8°F-1.8°C 89% 5.0 mph ENE8.0 kmh ENE 9.0 mph14.5 kmh 30.32 in1026.8 mb 0.00 in0.0 mm 0.00 in0.0 mm 0.00 in0.0 mm
07:45 AM 31.4°F-0.3°C 28.5°F-1.9°C 89% 5.0 mph ENE8.0 kmh ENE 7.0 mph11.3 kmh 30.32 in1026.8 mb 0.00 in0.0 mm 0.00 in0.0 mm 0.00 in0.0 mm
07:30 AM 31.8°F-0.1°C 28.7°F-1.8°C 88% 5.0 mph ENE8.0 kmh ENE 7.0 mph11.3 kmh 30.32 in1026.8 mb 0.00 in0.0 mm 0.00 in0.0 mm 0.00 in0.0 mm
07:15 AM 32.1°F0.1°C 28.9°F-1.7°C 88% 4.0 mph ENE6.4 kmh ENE 6.0 mph9.7 kmh 30.31 in1026.4 mb 0.00 in0.0 mm 0.00 in0.0 mm 0.00 in0.0 mm
07:00 AM 32.0°F0.0°C 28.3°F-2.1°C 86% 5.0 mph ENE8.0 kmh ENE 5.0 mph8.0 kmh 30.31 in1026.4 mb 0.00 in0.0 mm 0.00 in0.0 mm 0.00 in0.0 mm
06:45 AM 32.3°F0.2°C 28.3°F-2.1°C 85% 4.0 mph ENE6.4 kmh ENE 7.0 mph11.3 kmh 30.31 in1026.4 mb 0.00 in0.0 mm 0.00 in0.0 mm 0.00 in0.0 mm
06:30 AM 33.2°F0.7°C 28.9°F-1.7°C 84% 2.0 mph NE3.2 kmh NE 5.0 mph8.0 kmh 30.31 in1026.4 mb 0.00 in0.0 mm 0.00 in0.0 mm 0.00 in0.0 mm
06:00 AM 34.3°F1.3°C 29.7°F-1.3°C 83% 3.0 mph NE4.8 kmh NE 6.0 mph9.7 kmh 30.31 in1026.4 mb 0.00 in0.0 mm 0.00 in0.0 mm 0.00 in0.0 mm
05:45 AM 34.2°F1.2°C 29.6°F-1.3°C 83% 2.0 mph NE3.2 kmh NE 5.0 mph8.0 kmh 30.31 in1026.4 mb 0.00 in0.0 mm 0.00 in0.0 mm 0.00 in0.0 mm
05:30 AM 33.6°F0.9°C 29.3°F-1.5°C 84% 2.0 mph NE3.2 kmh NE 6.0 mph9.7 kmh 30.30 in1026.1 mb 0.00 in0.0 mm 0.00 in0.0 mm 0.00 in0.0 mm
05:15 AM 33.4°F0.8°C 29.1°F-1.6°C 84% 1.0 mph NE1.6 kmh NE 5.0 mph8.0 kmh 30.30 in1026.1 mb 0.00 in0.0 mm 0.00 in0.0 mm 0.00 in0.0 mm
05:00 AM 33.8°F1.0°C 28.9°F-1.7°C 82% 2.0 mph E3.2 kmh E 7.0 mph11.3 kmh 30.31 in1026.4 mb 0.00 in0.0 mm 0.00 in0.0 mm 0.00 in0.0 mm
04:45 AM 34.8°F1.6°C 29.9°F-1.2°C 82% 1.0 mph NE1.6 kmh NE 4.0 mph6.4 kmh 30.31 in1026.4 mb 0.00 in0.0 mm 0.00 in0.0 mm 0.00 in0.0 mm
04:30 AM 34.1°F1.2°C 29.5°F-1.4°C 83% 1.0 mph NE1.6 kmh NE 5.0 mph8.0 kmh 30.30 in1026.1 mb 0.00 in0.0 mm 0.00 in0.0 mm 0.00 in0.0 mm
04:15 AM 33.1°F0.6°C 28.8°F-1.8°C 84% Calm Calm 1.0 mph1.6 kmh 30.31 in1026.4 mb 0.00 in0.0 mm 0.00 in0.0 mm 0.00 in0.0 mm
04:00 AM 32.1°F0.1°C 27.5°F-2.5°C 83% Calm Calm 2.0 mph3.2 kmh 30.31 in1026.4 mb 0.00 in0.0 mm 0.00 in0.0 mm 0.00 in0.0 mm
03:45 AM 33.0°F0.6°C 27.5°F-2.5°C 80% Calm Calm -- 30.31 in1026.4 mb 0.00 in0.0 mm 0.00 in0.0 mm 0.00 in0.0 mm
03:30 AM 34.8°F1.6°C 28.3°F-2.1°C 77% Calm Calm 1.0 mph1.6 kmh 30.31 in1026.4 mb 0.00 in0.0 mm 0.00 in0.0 mm 0.00 in0.0 mm
03:15 AM 34.8°F1.6°C 29.6°F-1.3°C 81% Calm Calm 2.0 mph3.2 kmh 30.32 in1026.8 mb 0.00 in0.0 mm 0.00 in0.0 mm 0.00 in0.0 mm
03:00 AM 34.8°F1.6°C 29.0°F-1.7°C 79% Calm Calm 1.0 mph1.6 kmh 30.32 in1026.8 mb 0.00 in0.0 mm 0.00 in0.0 mm 0.00 in0.0 mm
02:45 AM 34.8°F1.6°C 29.3°F-1.5°C 80% Calm Calm -- 30.31 in1026.4 mb 0.00 in0.0 mm 0.00 in0.0 mm 0.00 in0.0 mm
02:30 AM 34.3°F1.3°C 29.4°F-1.4°C 82% Calm Calm -- 30.32 in1026.8 mb 0.00 in0.0 mm 0.00 in0.0 mm 0.00 in0.0 mm
02:15 AM 33.5°F0.8°C 28.9°F-1.7°C 83% Calm Calm -- 30.32 in1026.8 mb 0.00 in0.0 mm 0.00 in0.0 mm 0.00 in0.0 mm
02:00 AM 33.8°F1.0°C 29.2°F-1.6°C 83% Calm Calm -- 30.32 in1026.8 mb 0.00 in0.0 mm 0.00 in0.0 mm 0.00 in0.0 mm
01:45 AM 34.4°F1.3°C 29.5°F-1.4°C 82% Calm Calm -- 30.32 in1026.8 mb 0.00 in0.0 mm 0.00 in0.0 mm 0.00 in0.0 mm
01:30 AM 35.5°F1.9°C 29.6°F-1.3°C 79% 1.0 mph ENE1.6 kmh ENE 3.0 mph4.8 kmh 30.32 in1026.8 mb 0.00 in0.0 mm 0.00 in0.0 mm 0.00 in0.0 mm
01:15 AM 37.0°F2.8°C 30.5°F-0.8°C 77% Calm Calm -- 30.32 in1026.8 mb 0.00 in0.0 mm 0.00 in0.0 mm 0.00 in0.0 mm
01:00 AM 36.8°F2.7°C 31.2°F-0.4°C 80% 2.0 mph E3.2 kmh E 3.0 mph4.8 kmh 30.32 in1026.8 mb 0.00 in0.0 mm 0.00 in0.0 mm 0.00 in0.0 mm
12:45 AM 35.5°F1.9°C 29.6°F-1.3°C 79% Calm Calm -- 30.32 in1026.8 mb 0.00 in0.0 mm 0.00 in0.0 mm 0.00 in0.0 mm
12:30 AM 36.2°F2.3°C 30.3°F-0.9°C 79% Calm Calm -- 30.32 in1026.8 mb 0.00 in0.0 mm 0.00 in0.0 mm 0.00 in0.0 mm
12:15 AM 35.5°F1.9°C 28.7°F-1.8°C 76% Calm Calm -- 30.32 in1026.8 mb 0.00 in0.0 mm 0.00 in0.0 mm 0.00 in0.0 mm
12:00 AM 36.9°F2.7°C 29.4°F-1.4°C 74% Calm Calm -- 30.31 in1026.4 mb 0.00 in0.0 mm 0.00 in0.0 mm 0.00 in0.0 mm